sensor_id;sensor_type;location;lat;lon;timestamp;pressure;altitude;pressure_sealevel;temperature;humidity
36512;BME280;74732;46.796;9.822;2024-02-21T00:02:22;85273.31;;;14.61;18.66
36512;BME280;74732;46.796;9.822;2024-02-21T00:04:49;85273.03;;;14.35;18.59
36512;BME280;74732;46.796;9.822;2024-02-21T00:07:17;85273.61;;;14.76;18.58
36512;BME280;74732;46.796;9.822;2024-02-21T00:09:43;85277.25;;;14.94;18.50
36512;BME280;74732;46.796;9.822;2024-02-21T00:12:10;85278.91;;;14.95;18.46
36512;BME280;74732;46.796;9.822;2024-02-21T00:14:38;85274.95;;;14.89;18.50
36512;BME280;74732;46.796;9.822;2024-02-21T00:17:04;85268.85;;;14.72;18.56
36512;BME280;74732;46.796;9.822;2024-02-21T00:19:32;85266.49;;;14.77;18.52
36512;BME280;74732;46.796;9.822;2024-02-21T00:21:59;85262.41;;;14.94;18.41
36512;BME280;74732;46.796;9.822;2024-02-21T00:24:26;85258.24;;;14.76;18.49
36512;BME280;74732;46.796;9.822;2024-02-21T00:26:53;85259.37;;;14.80;18.47
36512;BME280;74732;46.796;9.822;2024-02-21T00:29:21;85264.49;;;14.62;18.54
36512;BME280;74732;46.796;9.822;2024-02-21T00:31:49;85265.52;;;14.86;18.40
36512;BME280;74732;46.796;9.822;2024-02-21T00:34:16;85259.02;;;14.76;18.45
36512;BME280;74732;46.796;9.822;2024-02-21T00:36:44;85252.42;;;14.33;18.43
36512;BME280;74732;46.796;9.822;2024-02-21T00:39:10;85247.43;;;15.66;18.42
36512;BME280;74732;46.796;9.822;2024-02-21T00:41:37;85246.38;;;14.76;18.40
36512;BME280;74732;46.796;9.822;2024-02-21T00:44:04;85245.83;;;14.62;18.25
36512;BME280;74732;46.796;9.822;2024-02-21T00:46:32;85240.81;;;14.92;18.29
36512;BME280;74732;46.796;9.822;2024-02-21T00:48:58;85239.80;;;14.87;18.31
36512;BME280;74732;46.796;9.822;2024-02-21T00:51:26;85235.56;;;14.79;18.33
36512;BME280;74732;46.796;9.822;2024-02-21T00:53:53;85235.15;;;14.65;18.37
36512;BME280;74732;46.796;9.822;2024-02-21T00:56:20;85237.05;;;14.72;18.34
36512;BME280;74732;46.796;9.822;2024-02-21T00:58:48;85241.53;;;14.75;18.32
36512;BME280;74732;46.796;9.822;2024-02-21T01:01:21;85243.20;;;14.95;18.19
36512;BME280;74732;46.796;9.822;2024-02-21T01:03:49;85243.64;;;14.94;18.17
36512;BME280;74732;46.796;9.822;2024-02-21T01:06:17;85240.51;;;14.67;18.07
36512;BME280;74732;46.796;9.822;2024-02-21T01:08:45;85236.76;;;14.67;18.04
36512;BME280;74732;46.796;9.822;2024-02-21T01:11:13;85231.91;;;15.00;18.08
36512;BME280;74732;46.796;9.822;2024-02-21T01:13:42;85230.20;;;14.60;18.07
36512;BME280;74732;46.796;9.822;2024-02-21T01:16:10;85226.77;;;14.96;18.09
36512;BME280;74732;46.796;9.822;2024-02-21T01:18:39;85226.43;;;14.95;18.09
36512;BME280;74732;46.796;9.822;2024-02-21T01:21:12;85226.92;;;15.01;18.04
36512;BME280;74732;46.796;9.822;2024-02-21T01:23:41;85224.69;;;14.92;18.07
36512;BME280;74732;46.796;9.822;2024-02-21T01:26:10;85220.16;;;14.93;18.06
36512;BME280;74732;46.796;9.822;2024-02-21T01:28:39;85219.51;;;15.30;18.06
36512;BME280;74732;46.796;9.822;2024-02-21T01:31:08;85216.19;;;14.88;18.07
36512;BME280;74732;46.796;9.822;2024-02-21T01:33:36;85213.63;;;14.48;18.06
36512;BME280;74732;46.796;9.822;2024-02-21T01:36:05;85208.25;;;15.26;18.06
36512;BME280;74732;46.796;9.822;2024-02-21T01:38:34;85207.03;;;14.84;18.07
36512;BME280;74732;46.796;9.822;2024-02-21T01:41:03;85202.90;;;14.69;18.12
36512;BME280;74732;46.796;9.822;2024-02-21T01:43:31;85196.26;;;14.82;18.03
36512;BME280;74732;46.796;9.822;2024-02-21T01:46:00;85194.19;;;15.17;18.06
36512;BME280;74732;46.796;9.822;2024-02-21T01:48:28;85196.30;;;14.72;18.08
36512;BME280;74732;46.796;9.822;2024-02-21T01:50:58;85193.67;;;14.91;18.15
36512;BME280;74732;46.796;9.822;2024-02-21T01:53:30;85190.73;;;14.61;18.07
36512;BME280;74732;46.796;9.822;2024-02-21T01:56:02;85191.64;;;15.03;18.05
36512;BME280;74732;46.796;9.822;2024-02-21T01:58:31;85188.77;;;14.56;18.07
36512;BME280;74732;46.796;9.822;2024-02-21T02:01:01;85184.68;;;14.53;18.09
36512;BME280;74732;46.796;9.822;2024-02-21T02:03:30;85181.31;;;14.46;18.11
36512;BME280;74732;46.796;9.822;2024-02-21T02:05:59;85177.67;;;14.46;18.08
36512;BME280;74732;46.796;9.822;2024-02-21T02:08:27;85178.62;;;14.44;18.10
36512;BME280;74732;46.796;9.822;2024-02-21T02:10:56;85181.89;;;15.12;18.21
36512;BME280;74732;46.796;9.822;2024-02-21T02:13:24;85182.03;;;14.40;18.10
36512;BME280;74732;46.796;9.822;2024-02-21T02:15:53;85182.35;;;14.38;18.10
36512;BME280;74732;46.796;9.822;2024-02-21T02:18:21;85180.25;;;14.78;18.09
36512;BME280;74732;46.796;9.822;2024-02-21T02:20:50;85177.91;;;14.33;18.07
36512;BME280;74732;46.796;9.822;2024-02-21T02:23:22;85183.21;;;14.35;18.04
36512;BME280;74732;46.796;9.822;2024-02-21T02:25:51;85184.20;;;14.56;17.92
36512;BME280;74732;46.796;9.822;2024-02-21T02:28:19;85183.71;;;14.58;17.91
36512;BME280;74732;46.796;9.822;2024-02-21T02:30:48;85182.96;;;14.48;17.95
36512;BME280;74732;46.796;9.822;2024-02-21T02:33:16;85179.15;;;14.60;17.85
36512;BME280;74732;46.796;9.822;2024-02-21T02:35:45;85177.28;;;14.68;17.80
36512;BME280;74732;46.796;9.822;2024-02-21T02:38:13;85178.12;;;15.63;17.79
36512;BME280;74732;46.796;9.822;2024-02-21T02:40:41;85176.19;;;14.74;17.74
36512;BME280;74732;46.796;9.822;2024-02-21T02:43:09;85181.56;;;14.78;17.74
36512;BME280;74732;46.796;9.822;2024-02-21T02:45:37;85185.26;;;14.74;17.74
36512;BME280;74732;46.796;9.822;2024-02-21T02:48:05;85178.43;;;14.66;17.76
36512;BME280;74732;46.796;9.822;2024-02-21T02:50:33;85174.45;;;14.74;17.72
36512;BME280;74732;46.796;9.822;2024-02-21T02:53:00;85173.29;;;15.01;17.75
36512;BME280;74732;46.796;9.822;2024-02-21T02:55:28;85173.18;;;14.60;17.74
36512;BME280;74732;46.796;9.822;2024-02-21T02:57:55;85173.34;;;14.75;17.65
36512;BME280;74732;46.796;9.822;2024-02-21T03:00:23;85173.00;;;14.80;17.64
36512;BME280;74732;46.796;9.822;2024-02-21T03:02:51;85169.15;;;14.73;17.65
36512;BME280;74732;46.796;9.822;2024-02-21T03:05:20;85164.85;;;14.66;17.67
36512;BME280;74732;46.796;9.822;2024-02-21T03:07:49;85158.33;;;14.64;17.67
36512;BME280;74732;46.796;9.822;2024-02-21T03:10:22;85150.67;;;14.68;17.65
36512;BME280;74732;46.796;9.822;2024-02-21T03:12:50;85143.01;;;14.70;17.64
36512;BME280;74732;46.796;9.822;2024-02-21T03:15:17;85135.74;;;14.83;17.55
36512;BME280;74732;46.796;9.822;2024-02-21T03:17:45;85134.34;;;14.80;17.55
36512;BME280;74732;46.796;9.822;2024-02-21T03:20:13;85133.10;;;15.23;17.55
36512;BME280;74732;46.796;9.822;2024-02-21T03:22:41;85130.56;;;14.76;17.58
36512;BME280;74732;46.796;9.822;2024-02-21T03:25:10;85124.33;;;15.02;17.65
36512;BME280;74732;46.796;9.822;2024-02-21T03:27:37;85121.20;;;14.67;17.61
36512;BME280;74732;46.796;9.822;2024-02-21T03:30:06;85115.56;;;14.58;17.64
36512;BME280;74732;46.796;9.822;2024-02-21T03:32:33;85115.78;;;14.57;17.64
36512;BME280;74732;46.796;9.822;2024-02-21T03:35:01;85119.40;;;15.12;17.57
36512;BME280;74732;46.796;9.822;2024-02-21T03:37:28;85113.29;;;14.59;17.61
36512;BME280;74732;46.796;9.822;2024-02-21T03:39:56;85117.43;;;15.02;17.63
36512;BME280;74732;46.796;9.822;2024-02-21T03:42:24;85116.48;;;14.54;17.60
36512;BME280;74732;46.796;9.822;2024-02-21T03:44:51;85119.15;;;14.90;17.63
36512;BME280;74732;46.796;9.822;2024-02-21T03:47:19;85123.28;;;14.64;17.54
36512;BME280;74732;46.796;9.822;2024-02-21T03:49:46;85121.55;;;14.66;17.51
36512;BME280;74732;46.796;9.822;2024-02-21T03:52:20;85122.57;;;14.50;17.57
36512;BME280;74732;46.796;9.822;2024-02-21T03:54:47;85124.58;;;14.55;17.55
36512;BME280;74732;46.796;9.822;2024-02-21T03:57:15;85124.98;;;14.66;17.46
36512;BME280;74732;46.796;9.822;2024-02-21T03:59:43;85123.17;;;14.33;17.65
36512;BME280;74732;46.796;9.822;2024-02-21T04:02:10;85124.95;;;14.30;17.65
36512;BME280;74732;46.796;9.822;2024-02-21T04:04:43;85129.45;;;14.41;17.56
36512;BME280;74732;46.796;9.822;2024-02-21T04:07:10;85128.45;;;14.49;17.51
36512;BME280;74732;46.796;9.822;2024-02-21T04:09:38;85125.72;;;14.75;17.59
36512;BME280;74732;46.796;9.822;2024-02-21T04:12:07;85120.91;;;14.40;17.55
36512;BME280;74732;46.796;9.822;2024-02-21T04:14:35;85125.86;;;14.64;17.65
36512;BME280;74732;46.796;9.822;2024-02-21T04:17:03;85128.71;;;14.10;17.68
36512;BME280;74732;46.796;9.822;2024-02-21T04:19:30;85124.33;;;14.87;17.54
36512;BME280;74732;46.796;9.822;2024-02-21T04:21:57;85122.16;;;14.53;17.67
36512;BME280;74732;46.796;9.822;2024-02-21T04:24:25;85125.37;;;14.46;17.71
36512;BME280;74732;46.796;9.822;2024-02-21T04:26:52;85130.19;;;14.72;17.59
36512;BME280;74732;46.796;9.822;2024-02-21T04:29:18;85128.60;;;14.61;17.40
36512;BME280;74732;46.796;9.822;2024-02-21T04:31:45;85125.65;;;14.32;17.53
36512;BME280;74732;46.796;9.822;2024-02-21T04:34:12;85120.14;;;14.31;17.53
36512;BME280;74732;46.796;9.822;2024-02-21T04:36:39;85117.44;;;14.15;17.60
36512;BME280;74732;46.796;9.822;2024-02-21T04:39:06;85115.04;;;14.07;17.63
36512;BME280;74732;46.796;9.822;2024-02-21T04:41:33;85109.72;;;14.53;17.59
36512;BME280;74732;46.796;9.822;2024-02-21T04:44:01;85110.61;;;14.57;17.55
36512;BME280;74732;46.796;9.822;2024-02-21T04:46:28;85106.44;;;14.43;17.62
36512;BME280;74732;46.796;9.822;2024-02-21T04:48:55;85101.49;;;13.66;17.78
36512;BME280;74732;46.796;9.822;2024-02-21T04:51:22;85098.09;;;14.66;17.50
36512;BME280;74732;46.796;9.822;2024-02-21T04:53:49;85096.47;;;14.25;17.46
36512;BME280;74732;46.796;9.822;2024-02-21T04:56:15;85094.69;;;14.65;17.44
36512;BME280;74732;46.796;9.822;2024-02-21T04:58:43;85093.49;;;14.76;17.37
36512;BME280;74732;46.796;9.822;2024-02-21T05:01:10;85088.10;;;14.36;17.60
36512;BME280;74732;46.796;9.822;2024-02-21T05:03:38;85087.00;;;14.68;17.67
36512;BME280;74732;46.796;9.822;2024-02-21T05:06:05;85090.22;;;14.23;17.63
36512;BME280;74732;46.796;9.822;2024-02-21T05:08:32;85090.69;;;14.58;17.70
36512;BME280;74732;46.796;9.822;2024-02-21T05:10:59;85090.06;;;14.34;17.80
36512;BME280;74732;46.796;9.822;2024-02-21T05:13:26;85089.09;;;14.37;17.79
36512;BME280;74732;46.796;9.822;2024-02-21T05:15:54;85089.31;;;14.53;17.72
36512;BME280;74732;46.796;9.822;2024-02-21T05:18:21;85083.98;;;14.69;17.64
36512;BME280;74732;46.796;9.822;2024-02-21T05:20:47;85079.63;;;14.77;17.59
36512;BME280;74732;46.796;9.822;2024-02-21T05:23:15;85074.28;;;14.19;17.62
36512;BME280;74732;46.796;9.822;2024-02-21T05:25:43;85065.21;;;14.70;17.57
36512;BME280;74732;46.796;9.822;2024-02-21T05:28:09;85065.25;;;14.24;17.54
36512;BME280;74732;46.796;9.822;2024-02-21T05:30:37;85067.04;;;14.24;17.51
36512;BME280;74732;46.796;9.822;2024-02-21T05:33:04;85063.08;;;14.23;17.52
36512;BME280;74732;46.796;9.822;2024-02-21T05:35:31;85057.28;;;14.21;17.55
36512;BME280;74732;46.796;9.822;2024-02-21T05:37:59;85054.56;;;14.25;17.50
36512;BME280;74732;46.796;9.822;2024-02-21T05:40:27;85050.10;;;13.84;17.48
36512;BME280;74732;46.796;9.822;2024-02-21T05:42:53;85048.30;;;13.87;17.49
36512;BME280;74732;46.796;9.822;2024-02-21T05:45:21;85046.14;;;13.83;17.44
36512;BME280;74732;46.796;9.822;2024-02-21T05:47:48;85044.24;;;13.52;17.62
36512;BME280;74732;46.796;9.822;2024-02-21T05:50:19;85045.14;;;14.35;17.59
36512;BME280;74732;46.796;9.822;2024-02-21T05:52:46;85041.29;;;13.65;17.76
36512;BME280;74732;46.796;9.822;2024-02-21T05:55:14;85036.00;;;14.00;17.88
36512;BME280;74732;46.796;9.822;2024-02-21T05:57:42;85032.76;;;13.94;17.85
36512;BME280;74732;46.796;9.822;2024-02-21T06:00:10;85030.55;;;13.38;17.86
36512;BME280;74732;46.796;9.822;2024-02-21T06:02:38;85032.30;;;13.34;17.80
36512;BME280;74732;46.796;9.822;2024-02-21T06:05:05;85033.53;;;13.77;17.80
36512;BME280;74732;46.796;9.822;2024-02-21T06:07:32;85028.89;;;14.53;17.81
36512;BME280;74732;46.796;9.822;2024-02-21T06:10:01;85029.50;;;13.66;17.86
36512;BME280;74732;46.796;9.822;2024-02-21T06:12:28;85031.79;;;13.53;17.72
36512;BME280;74732;46.796;9.822;2024-02-21T06:14:55;85032.20;;;13.62;17.64
36512;BME280;74732;46.796;9.822;2024-02-21T06:17:22;85025.52;;;13.52;17.65
36512;BME280;74732;46.796;9.822;2024-02-21T06:19:49;85021.92;;;13.82;17.71
36512;BME280;74732;46.796;9.822;2024-02-21T06:22:16;85025.07;;;13.24;17.54
36512;BME280;74732;46.796;9.822;2024-02-21T06:24:43;85027.73;;;13.80;17.54
36512;BME280;74732;46.796;9.822;2024-02-21T06:27:11;85028.67;;;14.23;17.28
36512;BME280;74732;46.796;9.822;2024-02-21T06:29:38;85026.38;;;14.11;17.40
36512;BME280;74732;46.796;9.822;2024-02-21T06:32:06;85025.94;;;14.25;17.90
36512;BME280;74732;46.796;9.822;2024-02-21T06:34:34;85024.28;;;14.73;18.34
36512;BME280;74732;46.796;9.822;2024-02-21T06:37:01;85022.02;;;14.71;18.80
36512;BME280;74732;46.796;9.822;2024-02-21T06:39:29;85020.03;;;14.91;18.99
36512;BME280;74732;46.796;9.822;2024-02-21T06:41:56;85027.99;;;15.25;19.35
36512;BME280;74732;46.796;9.822;2024-02-21T06:44:23;85030.22;;;15.47;19.36
36512;BME280;74732;46.796;9.822;2024-02-21T06:46:50;85029.07;;;15.30;19.69
36512;BME280;74732;46.796;9.822;2024-02-21T06:49:17;85032.38;;;15.61;19.66
36512;BME280;74732;46.796;9.822;2024-02-21T06:51:45;85033.67;;;15.89;19.70
36512;BME280;74732;46.796;9.822;2024-02-21T06:54:18;85031.19;;;15.45;19.89
36512;BME280;74732;46.796;9.822;2024-02-21T06:56:45;85026.47;;;16.25;19.79
36512;BME280;74732;46.796;9.822;2024-02-21T06:59:12;85029.62;;;15.79;20.22
36512;BME280;74732;46.796;9.822;2024-02-21T07:01:39;85031.47;;;16.41;20.06
36512;BME280;74732;46.796;9.822;2024-02-21T07:04:06;85030.59;;;16.22;20.31
36512;BME280;74732;46.796;9.822;2024-02-21T07:06:33;85032.30;;;16.55;20.47
36512;BME280;74732;46.796;9.822;2024-02-21T07:09:01;85035.38;;;16.67;20.79
36512;BME280;74732;46.796;9.822;2024-02-21T07:11:28;85039.19;;;15.81;20.74
36512;BME280;74732;46.796;9.822;2024-02-21T07:13:56;85040.79;;;16.17;21.10
36512;BME280;74732;46.796;9.822;2024-02-21T07:16:23;85039.54;;;16.33;21.03
36512;BME280;74732;46.796;9.822;2024-02-21T07:18:50;85032.67;;;16.85;20.75
36512;BME280;74732;46.796;9.822;2024-02-21T07:21:18;85031.67;;;16.25;20.32
36512;BME280;74732;46.796;9.822;2024-02-21T07:23:48;85034.99;;;16.56;20.19
36512;BME280;74732;46.796;9.822;2024-02-21T07:26:16;85036.13;;;16.45;20.25
36512;BME280;74732;46.796;9.822;2024-02-21T07:28:43;85033.45;;;16.61;20.13
36512;BME280;74732;46.796;9.822;2024-02-21T07:31:10;85033.45;;;15.86;19.85
36512;BME280;74732;46.796;9.822;2024-02-21T07:33:38;85034.19;;;15.74;19.59
36512;BME280;74732;46.796;9.822;2024-02-21T07:36:07;85034.54;;;15.68;19.47
36512;BME280;74732;46.796;9.822;2024-02-21T07:38:34;85031.70;;;16.52;19.28
36512;BME280;74732;46.796;9.822;2024-02-21T07:41:01;85032.92;;;15.72;19.12
36512;BME280;74732;46.796;9.822;2024-02-21T07:43:29;85037.75;;;16.28;19.01
36512;BME280;74732;46.796;9.822;2024-02-21T07:45:56;85036.63;;;15.92;18.86
36512;BME280;74732;46.796;9.822;2024-02-21T07:48:22;85033.18;;;15.57;18.65
36512;BME280;74732;46.796;9.822;2024-02-21T07:50:49;85031.51;;;16.10;18.42
36512;BME280;74732;46.796;9.822;2024-02-21T07:53:17;85033.79;;;16.23;18.36
36512;BME280;74732;46.796;9.822;2024-02-21T07:55:45;85032.46;;;15.98;18.37
36512;BME280;74732;46.796;9.822;2024-02-21T07:58:12;85026.56;;;16.03;18.36
36512;BME280;74732;46.796;9.822;2024-02-21T08:00:39;85027.24;;;16.04;18.11
36512;BME280;74732;46.796;9.822;2024-02-21T08:03:06;85025.02;;;16.01;18.09
36512;BME280;74732;46.796;9.822;2024-02-21T08:05:34;85019.22;;;16.11;17.95
36512;BME280;74732;46.796;9.822;2024-02-21T08:08:02;85018.99;;;15.95;17.90
36512;BME280;74732;46.796;9.822;2024-02-21T08:10:30;85015.14;;;16.64;17.78
36512;BME280;74732;46.796;9.822;2024-02-21T08:12:58;85012.23;;;16.74;17.75
36512;BME280;74732;46.796;9.822;2024-02-21T08:15:25;85011.30;;;15.96;17.73
36512;BME280;74732;46.796;9.822;2024-02-21T08:17:52;85009.57;;;16.97;17.60
36512;BME280;74732;46.796;9.822;2024-02-21T08:20:20;85008.99;;;16.12;17.46
36512;BME280;74732;46.796;9.822;2024-02-21T08:22:46;84997.72;;;16.02;17.40
36512;BME280;74732;46.796;9.822;2024-02-21T08:25:21;84989.85;;;16.34;17.76
36512;BME280;74732;46.796;9.822;2024-02-21T08:27:51;84990.38;;;16.36;18.17
36512;BME280;74732;46.796;9.822;2024-02-21T08:30:19;84984.43;;;16.69;18.47
36512;BME280;74732;46.796;9.822;2024-02-21T08:32:45;84980.50;;;16.67;18.87
36512;BME280;74732;46.796;9.822;2024-02-21T08:35:13;84981.52;;;16.42;18.95
36512;BME280;74732;46.796;9.822;2024-02-21T08:37:40;84976.18;;;16.82;19.15
36512;BME280;74732;46.796;9.822;2024-02-21T08:40:08;84972.06;;;16.91;19.25
36512;BME280;74732;46.796;9.822;2024-02-21T08:42:35;84965.71;;;16.86;19.11
36512;BME280;74732;46.796;9.822;2024-02-21T08:45:03;84966.22;;;16.88;19.12
36512;BME280;74732;46.796;9.822;2024-02-21T08:47:30;84960.89;;;17.30;19.04
36512;BME280;74732;46.796;9.822;2024-02-21T08:49:58;84962.23;;;16.80;19.18
36512;BME280;74732;46.796;9.822;2024-02-21T08:52:24;84961.28;;;17.37;19.34
36512;BME280;74732;46.796;9.822;2024-02-21T08:54:51;84958.29;;;17.65;19.43
36512;BME280;74732;46.796;9.822;2024-02-21T08:57:19;84954.07;;;16.99;19.52
36512;BME280;74732;46.796;9.822;2024-02-21T08:59:46;84951.37;;;17.26;19.35
36512;BME280;74732;46.796;9.822;2024-02-21T09:02:14;84949.40;;;17.24;19.18
36512;BME280;74732;46.796;9.822;2024-02-21T09:04:41;84946.79;;;17.18;19.22
36512;BME280;74732;46.796;9.822;2024-02-21T09:07:08;84940.41;;;17.54;18.90
36512;BME280;74732;46.796;9.822;2024-02-21T09:09:35;84939.08;;;17.99;18.70
36512;BME280;74732;46.796;9.822;2024-02-21T09:12:02;84939.81;;;17.58;18.36
36512;BME280;74732;46.796;9.822;2024-02-21T09:14:29;84938.84;;;17.72;17.94
36512;BME280;74732;46.796;9.822;2024-02-21T09:16:56;84938.77;;;17.52;16.13
36512;BME280;74732;46.796;9.822;2024-02-21T09:19:24;84934.53;;;17.38;16.49
36512;BME280;74732;46.796;9.822;2024-02-21T09:21:51;84933.58;;;17.28;15.78
36512;BME280;74732;46.796;9.822;2024-02-21T09:24:19;84932.15;;;17.00;16.38
36512;BME280;74732;46.796;9.822;2024-02-21T09:26:46;84932.15;;;17.18;16.59
36512;BME280;74732;46.796;9.822;2024-02-21T09:29:12;84930.31;;;17.20;16.76
36512;BME280;74732;46.796;9.822;2024-02-21T09:31:39;84930.32;;;17.46;17.11
36512;BME280;74732;46.796;9.822;2024-02-21T09:34:06;84928.94;;;17.80;17.17
36512;BME280;74732;46.796;9.822;2024-02-21T09:36:33;84930.59;;;17.26;17.48
36512;BME280;74732;46.796;9.822;2024-02-21T09:38:59;84929.64;;;17.80;17.72
36512;BME280;74732;46.796;9.822;2024-02-21T09:41:27;84930.64;;;18.35;18.03
36512;BME280;74732;46.796;9.822;2024-02-21T09:43:55;84933.93;;;17.76;17.88
36512;BME280;74732;46.796;9.822;2024-02-21T09:46:28;84931.18;;;18.17;18.04
36512;BME280;74732;46.796;9.822;2024-02-21T09:49:10;84931.11;;;17.67;17.77
36512;BME280;74732;46.796;9.822;2024-02-21T09:51:42;84931.56;;;17.91;18.10
36512;BME280;74732;46.796;9.822;2024-02-21T09:54:10;84932.57;;;17.87;18.01
36512;BME280;74732;46.796;9.822;2024-02-21T09:56:38;84937.32;;;17.99;18.17
36512;BME280;74732;46.796;9.822;2024-02-21T09:59:05;84930.83;;;18.03;18.36
36512;BME280;74732;46.796;9.822;2024-02-21T10:01:34;84928.99;;;18.21;17.59
36512;BME280;74732;46.796;9.822;2024-02-21T10:04:01;84929.74;;;18.72;17.90
36512;BME280;74732;46.796;9.822;2024-02-21T10:06:29;84926.80;;;18.35;18.02
36512;BME280;74732;46.796;9.822;2024-02-21T10:08:56;84925.23;;;18.63;17.93
36512;BME280;74732;46.796;9.822;2024-02-21T10:11:24;84922.54;;;18.00;18.29
36512;BME280;74732;46.796;9.822;2024-02-21T10:14:02;84921.68;;;18.24;18.38
36512;BME280;74732;46.796;9.822;2024-02-21T10:16:29;84917.96;;;18.78;18.70
36512;BME280;74732;46.796;9.822;2024-02-21T10:18:57;84912.71;;;18.88;18.92
36512;BME280;74732;46.796;9.822;2024-02-21T10:21:24;84910.03;;;19.35;19.01
36512;BME280;74732;46.796;9.822;2024-02-21T10:23:52;84906.64;;;19.19;19.37
36512;BME280;74732;46.796;9.822;2024-02-21T10:26:20;84905.45;;;18.97;19.51
36512;BME280;74732;46.796;9.822;2024-02-21T10:28:48;84905.47;;;19.03;19.13
36512;BME280;74732;46.796;9.822;2024-02-21T10:31:22;84901.24;;;19.03;18.66
36512;BME280;74732;46.796;9.822;2024-02-21T10:33:55;84899.81;;;18.63;18.18
36512;BME280;74732;46.796;9.822;2024-02-21T10:36:23;84896.16;;;18.62;17.92
36512;BME280;74732;46.796;9.822;2024-02-21T10:38:52;84891.57;;;19.10;17.46
36512;BME280;74732;46.796;9.822;2024-02-21T10:41:20;84890.70;;;19.10;17.38
36512;BME280;74732;46.796;9.822;2024-02-21T10:43:50;84888.30;;;19.18;17.25
36512;BME280;74732;46.796;9.822;2024-02-21T10:46:19;84882.07;;;18.78;17.46
36512;BME280;74732;46.796;9.822;2024-02-21T10:48:48;84882.62;;;18.77;17.50
36512;BME280;74732;46.796;9.822;2024-02-21T10:51:17;84874.50;;;18.85;12.68
36512;BME280;74732;46.796;9.822;2024-02-21T10:53:45;84874.12;;;18.68;16.77
36512;BME280;74732;46.796;9.822;2024-02-21T10:56:21;84869.14;;;18.51;16.08
36512;BME280;74732;46.796;9.822;2024-02-21T10:58:49;84869.86;;;18.09;15.83
36512;BME280;74732;46.796;9.822;2024-02-21T11:01:18;84865.86;;;18.26;15.69
36512;BME280;74732;46.796;9.822;2024-02-21T11:03:47;84862.81;;;17.94;15.89
36512;BME280;74732;46.796;9.822;2024-02-21T11:06:17;84860.91;;;18.76;15.99
36512;BME280;74732;46.796;9.822;2024-02-21T11:08:45;84859.94;;;17.97;16.09
36512;BME280;74732;46.796;9.822;2024-02-21T11:11:13;84858.82;;;18.87;16.33
36512;BME280;74732;46.796;9.822;2024-02-21T11:13:40;84853.28;;;18.04;16.35
36512;BME280;74732;46.796;9.822;2024-02-21T11:16:09;84850.48;;;18.93;16.31
36512;BME280;74732;46.796;9.822;2024-02-21T11:18:37;84847.72;;;18.27;16.36
36512;BME280;74732;46.796;9.822;2024-02-21T11:21:04;84840.48;;;18.36;16.34
36512;BME280;74732;46.796;9.822;2024-02-21T11:23:32;84833.98;;;18.47;16.35
36512;BME280;74732;46.796;9.822;2024-02-21T11:26:07;84830.53;;;18.85;16.45
36512;BME280;74732;46.796;9.822;2024-02-21T11:28:35;84825.15;;;18.44;16.46
36512;BME280;74732;46.796;9.822;2024-02-21T11:31:11;84823.94;;;18.65;16.41
36512;BME280;74732;46.796;9.822;2024-02-21T11:33:39;84818.28;;;18.12;16.65
36512;BME280;74732;46.796;9.822;2024-02-21T11:36:07;84810.46;;;18.58;16.64
36512;BME280;74732;46.796;9.822;2024-02-21T11:38:35;84805.35;;;18.61;16.61
36512;BME280;74732;46.796;9.822;2024-02-21T11:41:02;84802.69;;;18.78;16.45
36512;BME280;74732;46.796;9.822;2024-02-21T11:43:29;84802.02;;;18.81;16.43
36512;BME280;74732;46.796;9.822;2024-02-21T11:46:00;84801.47;;;18.34;16.35
36512;BME280;74732;46.796;9.822;2024-02-21T11:48:27;84799.05;;;18.72;16.40
36512;BME280;74732;46.796;9.822;2024-02-21T11:50:55;84793.70;;;18.69;16.41
36512;BME280;74732;46.796;9.822;2024-02-21T11:53:22;84792.85;;;18.69;16.40
36512;BME280;74732;46.796;9.822;2024-02-21T11:55:50;84781.58;;;18.60;16.42
36512;BME280;74732;46.796;9.822;2024-02-21T11:58:17;84776.04;;;18.65;16.38
36512;BME280;74732;46.796;9.822;2024-02-21T12:00:44;84772.05;;;18.10;16.40
36512;BME280;74732;46.796;9.822;2024-02-21T12:03:12;84769.89;;;18.68;16.35
36512;BME280;74732;46.796;9.822;2024-02-21T12:05:41;84766.00;;;18.18;16.34
36512;BME280;74732;46.796;9.822;2024-02-21T12:08:08;84759.70;;;18.61;16.36
36512;BME280;74732;46.796;9.822;2024-02-21T12:10:37;84757.70;;;18.59;16.36
36512;BME280;74732;46.796;9.822;2024-02-21T12:13:06;84752.89;;;18.61;16.34
36512;BME280;74732;46.796;9.822;2024-02-21T12:15:33;84747.41;;;18.15;16.33
36512;BME280;74732;46.796;9.822;2024-02-21T12:18:00;84744.63;;;18.15;16.32
36512;BME280;74732;46.796;9.822;2024-02-21T12:20:28;84742.27;;;18.69;16.30
36512;BME280;74732;46.796;9.822;2024-02-21T12:22:55;84738.05;;;18.52;16.37
36512;BME280;74732;46.796;9.822;2024-02-21T12:25:23;84730.61;;;18.59;16.34
36512;BME280;74732;46.796;9.822;2024-02-21T12:27:50;84729.53;;;18.60;16.33
36512;BME280;74732;46.796;9.822;2024-02-21T12:30:18;84726.27;;;17.99;16.37
36512;BME280;74732;46.796;9.822;2024-02-21T12:32:46;84724.29;;;18.07;16.33
36512;BME280;74732;46.796;9.822;2024-02-21T12:35:13;84717.88;;;18.76;16.24
36512;BME280;74732;46.796;9.822;2024-02-21T12:37:41;84716.07;;;18.32;16.21
36512;BME280;74732;46.796;9.822;2024-02-21T12:40:09;84714.23;;;18.27;16.22
36512;BME280;74732;46.796;9.822;2024-02-21T12:42:37;84712.40;;;18.28;16.20
36512;BME280;74732;46.796;9.822;2024-02-21T12:45:05;84708.51;;;18.23;16.23
36512;BME280;74732;46.796;9.822;2024-02-21T12:47:32;84702.64;;;18.80;16.19
36512;BME280;74732;46.796;9.822;2024-02-21T12:49:59;84699.95;;;18.76;16.21
36512;BME280;74732;46.796;9.822;2024-02-21T12:52:26;84693.10;;;18.73;16.22
36512;BME280;74732;46.796;9.822;2024-02-21T12:54:54;84685.42;;;18.72;16.22
36512;BME280;74732;46.796;9.822;2024-02-21T12:57:21;84680.56;;;18.57;16.29
36512;BME280;74732;46.796;9.822;2024-02-21T12:59:49;84678.32;;;18.67;16.24
36512;BME280;74732;46.796;9.822;2024-02-21T13:02:17;84672.63;;;18.56;16.29
36512;BME280;74732;46.796;9.822;2024-02-21T13:04:44;84671.69;;;18.69;16.23